createdAt,value
2018-02-18T00:00:51.095Z,49.90
2018-02-18T00:03:22.055Z,44.90
2018-02-18T00:05:53.037Z,45.23
2018-02-18T00:08:24.045Z,50.73
2018-02-18T00:10:55.130Z,42.70
2018-02-18T00:13:26.151Z,51.83
2018-02-18T00:15:57.231Z,46.33
2018-02-18T00:18:28.253Z,45.37
2018-02-18T00:20:59.249Z,47.20
2018-02-18T00:23:30.227Z,47.33
2018-02-18T00:26:01.257Z,43.63
2018-02-18T00:28:32.288Z,42.42
2018-02-18T00:31:03.310Z,50.03
2018-02-18T00:33:34.283Z,46.67
2018-02-18T00:36:05.277Z,38.80
2018-02-18T00:38:36.257Z,43.97
2018-02-18T00:41:07.276Z,45.10
2018-02-18T00:43:38.288Z,45.72
2018-02-18T00:46:09.283Z,42.95
2018-02-18T00:48:40.270Z,46.40
2018-02-18T00:51:11.299Z,45.57
2018-02-18T00:53:42.338Z,47.20
2018-02-18T00:56:13.315Z,40.97
2018-02-18T00:58:44.329Z,37.17
2018-02-18T01:01:15.370Z,42.93
2018-02-18T01:03:46.366Z,41.90
2018-02-18T01:06:17.351Z,47.57
2018-02-18T01:08:48.355Z,44.27
2018-02-18T01:11:19.346Z,46.60
2018-02-18T01:13:50.339Z,41.57
2018-02-18T01:16:21.346Z,43.03
2018-02-18T01:18:52.334Z,43.23
2018-02-18T01:21:23.351Z,46.90
2018-02-18T01:23:54.343Z,41.13
2018-02-18T01:26:25.318Z,37.63
2018-02-18T01:28:56.357Z,39.83
2018-02-18T01:31:27.471Z,38.90
2018-02-18T01:33:58.467Z,38.20
2018-02-18T01:36:29.473Z,39.40
2018-02-18T01:39:00.465Z,39.47
2018-02-18T01:41:31.497Z,40.97
2018-02-18T01:44:02.483Z,36.85
2018-02-18T01:46:33.491Z,43.17
2018-02-18T01:49:04.517Z,40.12
2018-02-18T01:51:35.554Z,35.15
2018-02-18T01:54:06.559Z,44.67
2018-02-18T01:56:37.580Z,37.97
2018-02-18T01:59:08.613Z,36.13
2018-02-18T02:01:39.613Z,33.22
2018-02-18T02:04:10.601Z,37.13
2018-02-18T02:06:41.569Z,39.43
2018-02-18T02:09:12.608Z,39.57
2018-02-18T02:11:43.664Z,42.30
2018-02-18T02:14:14.704Z,39.77
2018-02-18T02:16:45.692Z,37.97
2018-02-18T02:19:16.661Z,36.73
2018-02-18T02:21:47.699Z,35.17
2018-02-18T02:24:18.718Z,36.25
2018-02-18T02:26:49.747Z,35.20
2018-02-18T02:29:20.727Z,37.05
2018-02-18T02:31:51.757Z,38.57
2018-02-18T02:34:22.794Z,39.35
2018-02-18T02:36:53.811Z,38.40
2018-02-18T02:39:24.999Z,40.70
2018-02-18T02:41:58.823Z,38.42
2018-02-18T02:44:29.885Z,39.47
2018-02-18T02:47:00.882Z,37.80
2018-02-18T02:49:31.890Z,34.73
2018-02-18T02:52:02.920Z,38.22
2018-02-18T02:54:33.897Z,32.63
2018-02-18T02:57:04.940Z,40.67
2018-02-18T02:59:35.906Z,35.13
2018-02-18T03:02:06.913Z,37.87
2018-02-18T03:04:37.910Z,38.03
2018-02-18T03:07:08.969Z,39.43
2018-02-18T03:09:39.989Z,37.87
2018-02-18T03:12:10.984Z,32.58
2018-02-18T03:14:41.972Z,35.37
2018-02-18T03:17:12.961Z,33.23
2018-02-18T03:19:44.033Z,33.17
2018-02-18T03:22:15.000Z,33.97
2018-02-18T03:24:46.004Z,34.97
2018-02-18T03:27:16.986Z,34.65
2018-02-18T03:29:48.001Z,38.20
2018-02-18T03:32:19.004Z,38.85
2018-02-18T03:34:50.044Z,37.33
2018-02-18T03:37:21.040Z,36.03
2018-02-18T03:39:51.998Z,34.43
2018-02-18T03:42:22.995Z,34.40
2018-02-18T03:44:53.978Z,37.40
2018-02-18T03:47:25.022Z,35.80
2018-02-18T03:49:56.044Z,35.53
2018-02-18T03:52:27.002Z,43.80
2018-02-18T03:54:57.969Z,36.70
2018-02-18T03:57:28.974Z,41.53
2018-02-18T03:59:59.943Z,37.10
2018-02-18T04:02:30.957Z,38.63
2018-02-18T04:05:01.978Z,41.60
2018-02-18T04:07:32.969Z,35.92
2018-02-18T04:10:03.961Z,37.20
2018-02-18T04:12:34.958Z,46.07
2018-02-18T04:15:05.971Z,41.78
2018-02-18T04:17:36.985Z,39.08
2018-02-18T04:20:08.022Z,37.03
2018-02-18T04:22:39.029Z,41.10
2018-02-18T04:25:10.023Z,47.25
2018-02-18T04:27:41.059Z,41.83
2018-02-18T04:30:12.085Z,48.00
2018-02-18T04:32:43.071Z,44.88
2018-02-18T04:35:14.078Z,43.90
2018-02-18T04:37:45.060Z,44.35
2018-02-18T04:40:16.029Z,40.50
2018-02-18T04:42:47.030Z,44.73
2018-02-18T04:45:17.972Z,42.67
2018-02-18T04:47:48.964Z,36.07
2018-02-18T04:50:19.949Z,40.63
2018-02-18T04:52:50.935Z,43.23
2018-02-18T04:55:22.008Z,44.50
2018-02-18T04:57:52.996Z,43.10
2018-02-18T05:00:23.976Z,44.03
2018-02-18T05:03:02.042Z,38.23
2018-02-18T05:05:33.013Z,37.40
2018-02-18T05:08:04.060Z,41.00
2018-02-18T05:10:35.012Z,46.97
2018-02-18T05:13:05.963Z,40.33
2018-02-18T05:15:36.983Z,46.10
2018-02-18T05:18:08.021Z,44.13
2018-02-18T05:20:39.047Z,40.85
2018-02-18T05:23:10.048Z,40.95
2018-02-18T05:25:41.077Z,45.95
2018-02-18T05:28:12.068Z,45.67
2018-02-18T05:30:43.037Z,47.13
2018-02-18T05:33:14.054Z,43.87
2018-02-18T05:35:45.047Z,42.50
2018-02-18T05:38:16.016Z,41.37
2018-02-18T05:40:46.974Z,41.10
2018-02-18T05:43:18.006Z,45.57
2018-02-18T05:45:49.011Z,42.35
2018-02-18T05:48:20.034Z,45.88
2018-02-18T05:50:51.000Z,42.50
2018-02-18T05:53:22.037Z,37.70
2018-02-18T05:55:53.057Z,39.80
2018-02-18T05:58:24.041Z,40.80
2018-02-18T06:01:02.158Z,38.10
2018-02-18T06:03:33.139Z,39.28
2018-02-18T06:06:04.170Z,33.07
2018-02-18T06:08:35.180Z,35.28
2018-02-18T06:11:06.203Z,32.17
2018-02-18T06:13:37.215Z,33.15
2018-02-18T06:16:08.213Z,35.78
2018-02-18T06:18:39.213Z,35.37
2018-02-18T06:21:10.228Z,35.55
2018-02-18T06:23:41.256Z,38.55
2018-02-18T06:26:12.260Z,34.90
2018-02-18T06:28:43.291Z,32.70
2018-02-18T06:31:14.300Z,34.35
2018-02-18T06:33:45.279Z,36.15
2018-02-18T06:36:16.284Z,36.73
2018-02-18T06:38:47.282Z,34.95
2018-02-18T06:41:18.274Z,34.07
2018-02-18T06:43:49.264Z,31.43
2018-02-18T06:46:20.217Z,32.73
2018-02-18T06:48:51.227Z,36.60
2018-02-18T06:51:22.204Z,32.17
2018-02-18T06:53:53.184Z,29.30
2018-02-18T06:56:24.199Z,34.10
2018-02-18T06:58:55.182Z,35.57
2018-02-18T07:01:26.186Z,32.93
2018-02-18T07:03:57.208Z,32.10
2018-02-18T07:06:28.201Z,33.17
2018-02-18T07:08:59.258Z,30.33
2018-02-18T07:11:30.263Z,32.83
2018-02-18T07:14:01.274Z,31.30
2018-02-18T07:16:32.269Z,36.77
2018-02-18T07:19:03.288Z,30.37
2018-02-18T07:21:34.256Z,34.80
2018-02-18T07:24:05.249Z,32.97
2018-02-18T07:26:36.260Z,36.50
2018-02-18T07:29:07.248Z,34.90
2018-02-18T07:31:38.230Z,41.47
2018-02-18T07:34:09.272Z,32.07
2018-02-18T07:36:40.284Z,33.27
2018-02-18T07:39:11.275Z,35.60
2018-02-18T07:41:42.268Z,36.03
2018-02-18T07:44:13.275Z,28.77
2018-02-18T07:46:44.287Z,36.87
2018-02-18T07:49:15.323Z,34.47
2018-02-18T07:51:46.369Z,35.13
2018-02-18T07:54:17.413Z,34.33
2018-02-18T07:56:48.516Z,33.90
2018-02-18T07:59:19.539Z,33.97
2018-02-18T08:01:50.577Z,34.50
2018-02-18T08:04:21.750Z,35.97
2018-02-18T08:06:52.747Z,37.40
2018-02-18T08:09:23.813Z,30.23
2018-02-18T08:11:54.811Z,39.70
2018-02-18T08:14:25.845Z,31.20
2018-02-18T08:16:56.855Z,28.40
2018-02-18T08:19:27.868Z,27.50
2018-02-18T08:21:58.875Z,31.73
2018-02-18T08:24:29.949Z,31.07
2018-02-18T08:27:00.939Z,31.90
2018-02-18T08:29:31.991Z,31.47
2018-02-18T08:32:03.002Z,33.53
2018-02-18T08:34:34.104Z,34.23
2018-02-18T08:37:05.086Z,30.17
2018-02-18T08:39:36.118Z,33.30
2018-02-18T08:42:07.123Z,30.30
2018-02-18T08:44:38.136Z,27.23
2018-02-18T08:47:09.143Z,29.23
2018-02-18T08:49:40.175Z,31.00
2018-02-18T08:52:11.197Z,31.10
2018-02-18T08:54:42.236Z,25.53
2018-02-18T08:57:13.193Z,30.53
2018-02-18T08:59:44.249Z,29.80
2018-02-18T09:02:15.215Z,26.53
2018-02-18T09:04:46.292Z,29.17
2018-02-18T09:07:17.440Z,35.60
2018-02-18T09:09:55.532Z,29.93
2018-02-18T09:12:33.339Z,30.10
2018-02-18T09:15:04.328Z,28.97
2018-02-18T09:17:35.318Z,31.87
2018-02-18T09:20:06.320Z,31.63
2018-02-18T09:22:37.369Z,31.13
2018-02-18T09:25:08.375Z,30.17
2018-02-18T09:27:39.458Z,31.17
2018-02-18T09:30:10.440Z,30.27
2018-02-18T09:32:41.452Z,32.83
2018-02-18T09:35:12.443Z,31.27
2018-02-18T09:37:43.475Z,29.13
2018-02-18T09:40:14.504Z,32.10
2018-02-18T09:42:45.592Z,31.37
2018-02-18T09:45:16.574Z,29.90
2018-02-18T09:47:47.620Z,32.27
2018-02-18T09:50:18.593Z,30.07
2018-02-18T09:52:49.632Z,35.43
2018-02-18T09:55:20.641Z,32.43
2018-02-18T09:57:51.641Z,29.60
2018-02-18T10:00:22.620Z,29.63
2018-02-18T10:02:53.644Z,34.20
2018-02-18T10:05:24.631Z,30.23
2018-02-18T10:07:55.691Z,30.27
2018-02-18T10:10:26.705Z,30.87
2018-02-18T10:12:58.699Z,34.20
2018-02-18T10:15:29.708Z,31.77
2018-02-18T10:18:00.763Z,30.07
2018-02-18T10:20:31.722Z,33.53
2018-02-18T10:23:02.744Z,31.83
2018-02-18T10:25:33.755Z,35.67
2018-02-18T10:28:04.773Z,33.27
2018-02-18T10:30:35.781Z,31.00
2018-02-18T10:33:06.793Z,30.17
2018-02-18T10:35:37.818Z,30.57
2018-02-18T10:38:08.887Z,37.97
2018-02-18T10:40:39.879Z,35.00
2018-02-18T10:43:10.875Z,31.33
2018-02-18T10:45:41.873Z,31.77
2018-02-18T10:48:12.864Z,31.90
2018-02-18T10:50:43.980Z,31.13
2018-02-18T10:53:14.964Z,31.40
2018-02-18T10:55:46.079Z,31.97
2018-02-18T10:58:17.100Z,33.83
2018-02-18T11:00:48.092Z,30.47
2018-02-18T11:03:19.087Z,32.37
2018-02-18T11:05:50.040Z,32.07
2018-02-18T11:08:21.083Z,30.43
2018-02-18T11:10:52.157Z,30.50
2018-02-18T11:13:23.140Z,30.73
2018-02-18T11:15:54.168Z,28.87
2018-02-18T11:18:25.172Z,28.83
2018-02-18T11:20:56.204Z,29.57
2018-02-18T11:23:27.246Z,30.57
2018-02-18T11:25:58.284Z,29.47
2018-02-18T11:28:29.236Z,31.77
2018-02-18T11:31:00.264Z,31.23
2018-02-18T11:33:31.357Z,32.10
2018-02-18T11:36:02.373Z,31.03
2018-02-18T11:38:33.460Z,30.43
2018-02-18T11:41:04.485Z,29.80
2018-02-18T11:43:35.468Z,32.37
2018-02-18T11:46:06.447Z,31.43
2018-02-18T11:48:37.411Z,30.67
2018-02-18T11:51:08.409Z,30.67
2018-02-18T11:53:39.412Z,31.43
2018-02-18T11:56:10.439Z,30.70
2018-02-18T11:58:41.485Z,31.37
2018-02-18T12:01:12.481Z,28.97
2018-02-18T12:03:43.496Z,30.00
2018-02-18T12:06:14.562Z,33.40
2018-02-18T12:08:45.561Z,31.37
2018-02-18T12:11:16.628Z,29.80
2018-02-18T12:13:47.629Z,29.17
2018-02-18T12:16:18.649Z,30.07
2018-02-18T12:18:49.633Z,33.50
2018-02-18T12:21:20.640Z,32.50
2018-02-18T12:23:51.620Z,33.57
2018-02-18T12:26:22.622Z,31.03
2018-02-18T12:28:53.616Z,31.83
2018-02-18T12:31:25.414Z,30.73
2018-02-18T12:33:56.407Z,29.17
2018-02-18T12:36:27.430Z,29.10
2018-02-18T12:38:58.410Z,29.00
2018-02-18T12:41:30.186Z,31.60
2018-02-18T12:44:01.212Z,35.67
2018-02-18T12:46:32.239Z,29.23
2018-02-18T12:49:03.248Z,28.30
2018-02-18T12:51:34.251Z,27.73
2018-02-18T12:54:05.227Z,29.70
2018-02-18T12:56:36.208Z,31.63
2018-02-18T12:59:07.180Z,29.40
2018-02-18T13:01:38.161Z,29.27
2018-02-18T13:04:09.163Z,29.10
2018-02-18T13:06:40.148Z,28.93
2018-02-18T13:09:11.134Z,26.53
2018-02-18T13:11:42.082Z,27.33
2018-02-18T13:14:13.055Z,30.27
2018-02-18T13:16:44.035Z,29.53
2018-02-18T13:19:15.119Z,29.50
2018-02-18T13:21:46.122Z,26.83
2018-02-18T13:24:17.126Z,27.83
2018-02-18T13:26:48.135Z,29.43
2018-02-18T13:29:19.172Z,28.30
2018-02-18T13:31:50.136Z,29.40
2018-02-18T13:34:21.121Z,28.77
2018-02-18T13:36:52.169Z,26.80
2018-02-18T13:39:23.176Z,28.87
2018-02-18T13:41:54.244Z,28.37
2018-02-18T13:44:25.242Z,31.40
2018-02-18T13:46:56.237Z,28.17
2018-02-18T13:49:27.238Z,28.13
2018-02-18T13:51:58.257Z,30.30
2018-02-18T13:54:29.256Z,28.50
2018-02-18T13:57:00.254Z,28.63
2018-02-18T13:59:31.306Z,28.53
2018-02-18T14:02:02.271Z,30.40
2018-02-18T14:04:34.880Z,26.87
2018-02-18T14:07:05.848Z,24.60
2018-02-18T14:09:36.833Z,26.03
2018-02-18T14:12:07.813Z,26.93
2018-02-18T14:14:38.854Z,26.17
2018-02-18T14:17:09.879Z,25.80
2018-02-18T14:19:40.888Z,28.27
2018-02-18T14:22:11.919Z,25.83
2018-02-18T14:24:42.930Z,28.07
2018-02-18T14:27:13.965Z,28.80
2018-02-18T14:29:44.935Z,30.10
2018-02-18T14:32:15.995Z,28.53
2018-02-18T14:34:47.034Z,24.47
2018-02-18T14:37:18.038Z,25.80
2018-02-18T14:39:49.107Z,27.40
2018-02-18T14:42:32.384Z,26.03
2018-02-18T14:45:15.632Z,26.03
2018-02-18T14:47:58.826Z,28.87
2018-02-18T14:50:42.257Z,26.47
2018-02-18T14:53:25.365Z,26.87
2018-02-18T14:56:08.741Z,28.07
2018-02-18T14:58:39.708Z,27.57
2018-02-18T15:01:10.739Z,27.93
2018-02-18T15:03:41.780Z,27.60
2018-02-18T15:06:12.811Z,27.90
2018-02-18T15:08:43.818Z,28.00
2018-02-18T15:11:14.867Z,29.07
2018-02-18T15:13:45.880Z,30.10
2018-02-18T15:16:16.891Z,27.90
2018-02-18T15:18:47.892Z,24.90
2018-02-18T15:21:18.905Z,27.20
2018-02-18T15:23:49.943Z,26.20
2018-02-18T15:26:20.932Z,28.87
2018-02-18T15:28:51.918Z,27.97
2018-02-18T15:31:22.933Z,26.97
2018-02-18T15:33:53.961Z,26.87
2018-02-18T15:36:25.003Z,22.77
2018-02-18T15:38:55.981Z,24.37
2018-02-18T15:41:26.994Z,22.83
2018-02-18T15:43:57.978Z,24.53
2018-02-18T15:46:29.020Z,21.30
2018-02-18T15:48:59.996Z,19.97
2018-02-18T15:51:31.020Z,22.60
2018-02-18T15:54:02.034Z,19.70
2018-02-18T15:56:33.053Z,18.07
2018-02-18T15:59:04.077Z,18.27
2018-02-18T16:01:35.042Z,20.87
2018-02-18T16:04:06.069Z,17.67
2018-02-18T16:06:37.547Z,16.47
2018-02-18T16:09:08.544Z,18.47
2018-02-18T16:11:39.551Z,17.37
2018-02-18T16:14:10.577Z,13.60
2018-02-18T16:16:41.630Z,13.40
2018-02-18T16:19:12.616Z,12.83
2018-02-18T16:21:43.633Z,14.10
2018-02-18T16:24:14.640Z,13.53
2018-02-18T16:26:45.669Z,13.73
2018-02-18T16:29:16.703Z,15.27
2018-02-18T16:31:47.719Z,13.67
2018-02-18T16:34:18.786Z,17.13
2018-02-18T16:36:49.744Z,15.87
2018-02-18T16:39:20.719Z,14.97
2018-02-18T16:41:51.757Z,16.50
2018-02-18T16:44:22.758Z,15.17
2018-02-18T16:46:53.735Z,17.90
2018-02-18T16:49:24.763Z,15.10
2018-02-18T16:51:55.738Z,14.63
2018-02-18T16:54:26.764Z,19.70
2018-02-18T16:56:57.793Z,16.90
2018-02-18T16:59:28.881Z,15.83
2018-02-18T17:01:59.879Z,17.03
2018-02-18T17:04:30.873Z,18.70
2018-02-18T17:07:01.882Z,20.23
2018-02-18T17:09:32.890Z,20.57
2018-02-18T17:12:03.892Z,17.33
2018-02-18T17:14:34.953Z,21.37
2018-02-18T17:17:05.989Z,26.90
2018-02-18T17:19:37.005Z,21.75
2018-02-18T17:22:08.032Z,17.90
2018-02-18T17:24:39.004Z,22.73
2018-02-18T17:27:10.046Z,20.23
2018-02-18T17:29:41.087Z,19.80
2018-02-18T17:32:12.135Z,23.37
2018-02-18T17:34:43.142Z,22.75
2018-02-18T17:37:14.135Z,22.63
2018-02-18T17:39:45.298Z,25.53
2018-02-18T17:42:16.339Z,22.55
2018-02-18T17:44:47.345Z,25.65
2018-02-18T17:47:18.397Z,28.12
2018-02-18T17:49:49.414Z,28.83
2018-02-18T17:52:20.421Z,29.35
2018-02-18T17:54:51.435Z,29.00
2018-02-18T17:57:22.457Z,32.45
2018-02-18T17:59:53.529Z,30.05
2018-02-18T18:02:24.560Z,33.30
2018-02-18T18:04:55.583Z,34.03
2018-02-18T18:07:26.580Z,35.47
2018-02-18T18:09:57.614Z,34.60
2018-02-18T18:12:28.597Z,35.95
2018-02-18T18:14:59.641Z,32.87
2018-02-18T18:17:30.665Z,35.40
2018-02-18T18:20:01.696Z,33.15
2018-02-18T18:22:32.697Z,32.67
2018-02-18T18:25:03.658Z,32.33
2018-02-18T18:27:34.716Z,34.70
2018-02-18T18:30:05.762Z,35.20
2018-02-18T18:32:36.793Z,35.60
2018-02-18T18:35:07.841Z,36.92
2018-02-18T18:37:38.878Z,32.30
2018-02-18T18:40:09.935Z,36.83
2018-02-18T18:42:40.909Z,35.75
2018-02-18T18:45:11.956Z,35.40
2018-02-18T18:47:42.941Z,35.65
2018-02-18T18:50:13.999Z,31.77
2018-02-18T18:52:44.964Z,36.58
2018-02-18T18:55:15.998Z,34.90
2018-02-18T18:57:46.979Z,33.33
2018-02-18T19:00:18.056Z,38.60
2018-02-18T19:02:48.975Z,46.60
2018-02-18T19:05:20.124Z,32.47
2018-02-18T19:07:51.117Z,33.97
2018-02-18T19:10:22.117Z,35.40
2018-02-18T19:12:53.118Z,38.53
2018-02-18T19:15:24.096Z,35.27
2018-02-18T19:17:55.112Z,35.47
2018-02-18T19:20:26.083Z,32.50
2018-02-18T19:22:57.106Z,32.73
2018-02-18T19:25:28.109Z,32.47
2018-02-18T19:27:59.101Z,30.33
2018-02-18T19:30:30.168Z,31.90
2018-02-18T19:33:01.168Z,30.37
2018-02-18T19:35:32.171Z,37.03
2018-02-18T19:38:03.167Z,37.47
2018-02-18T19:40:34.195Z,36.40
2018-02-18T19:43:05.203Z,32.15
2018-02-18T19:45:36.273Z,37.60
2018-02-18T19:48:07.289Z,36.33
2018-02-18T19:50:38.334Z,41.85
2018-02-18T19:53:09.309Z,42.40
2018-02-18T19:55:40.417Z,35.47
2018-02-18T19:58:11.399Z,37.65
2018-02-18T20:00:42.380Z,38.40
2018-02-18T20:03:13.355Z,38.70
2018-02-18T20:05:44.362Z,40.53
2018-02-18T20:08:15.338Z,40.97
2018-02-18T20:10:46.365Z,42.73
2018-02-18T20:13:17.411Z,44.10
2018-02-18T20:15:48.435Z,44.63
2018-02-18T20:18:19.380Z,46.90
2018-02-18T20:20:50.428Z,48.57
2018-02-18T20:23:21.509Z,46.00
2018-02-18T20:25:52.503Z,48.53
2018-02-18T20:28:23.594Z,45.80
2018-02-18T20:30:54.585Z,52.58
2018-02-18T20:33:25.632Z,48.27
2018-02-18T20:35:56.609Z,44.75
2018-02-18T20:38:27.674Z,43.47
2018-02-18T20:40:58.619Z,46.42
2018-02-18T20:43:29.635Z,44.80
2018-02-18T20:46:00.662Z,46.35
2018-02-18T20:48:31.679Z,41.97
2018-02-18T20:51:02.674Z,42.25
2018-02-18T20:53:33.699Z,45.17
2018-02-18T20:56:04.758Z,36.25
2018-02-18T20:58:35.791Z,40.03
2018-02-18T21:01:06.808Z,38.58
2018-02-18T21:03:37.800Z,37.33
2018-02-18T21:06:08.809Z,39.90
2018-02-18T21:08:39.806Z,41.65
2018-02-18T21:11:10.844Z,41.78
2018-02-18T21:13:41.880Z,41.22
2018-02-18T21:16:12.833Z,38.67
2018-02-18T21:18:43.843Z,42.50
2018-02-18T21:21:14.849Z,37.72
2018-02-18T21:23:45.835Z,39.63
2018-02-18T21:26:16.870Z,32.83
2018-02-18T21:28:47.853Z,37.92
2018-02-18T21:31:18.873Z,32.53
2018-02-18T21:33:49.863Z,37.17
2018-02-18T21:36:21.025Z,34.80
2018-02-18T21:38:52.016Z,32.60
2018-02-18T21:41:22.979Z,35.63
2018-02-18T21:44:00.920Z,40.23
2018-02-18T21:46:31.930Z,35.40
2018-02-18T21:49:02.944Z,32.90
2018-02-18T21:51:33.935Z,34.67
2018-02-18T21:54:04.926Z,34.23
2018-02-18T21:56:35.922Z,32.80
2018-02-18T21:59:07.057Z,32.88
2018-02-18T22:01:38.060Z,27.67
2018-02-18T22:04:09.081Z,28.52
2018-02-18T22:06:40.037Z,31.10
2018-02-18T22:09:11.047Z,30.23
2018-02-18T22:11:42.055Z,32.50
2018-02-18T22:14:13.059Z,30.98
2018-02-18T22:16:44.039Z,26.58
2018-02-18T22:19:15.049Z,30.17
2018-02-18T22:21:45.997Z,26.58
2018-02-18T22:24:17.049Z,26.43
2018-02-18T22:26:48.071Z,27.37
2018-02-18T22:29:19.040Z,23.20
2018-02-18T22:31:50.056Z,23.97
2018-02-18T22:34:21.043Z,23.90
2018-02-18T22:36:52.048Z,25.83
2018-02-18T22:39:23.004Z,20.08
2018-02-18T22:41:54.032Z,22.33
2018-02-18T22:44:25.007Z,20.37
2018-02-18T22:46:56.049Z,20.63
2018-02-18T22:49:27.050Z,23.95
2018-02-18T22:51:58.086Z,19.98
2018-02-18T22:54:29.048Z,21.70
2018-02-18T22:57:00.066Z,18.97
2018-02-18T22:59:31.189Z,21.52
2018-02-18T23:02:02.261Z,19.15
2018-02-18T23:04:33.269Z,17.80
2018-02-18T23:07:07.168Z,15.93
2018-02-18T23:09:38.155Z,18.50
2018-02-18T23:12:09.177Z,19.73
2018-02-18T23:14:40.220Z,19.10
2018-02-18T23:17:11.212Z,16.92
2018-02-18T23:19:42.235Z,14.77
2018-02-18T23:22:13.209Z,17.20
2018-02-18T23:24:44.201Z,13.10
2018-02-18T23:27:15.206Z,14.20
2018-02-18T23:29:46.156Z,14.32
2018-02-18T23:32:17.175Z,15.97
2018-02-18T23:34:48.137Z,17.12
2018-02-18T23:37:19.181Z,14.90
2018-02-18T23:39:50.250Z,20.90
2018-02-18T23:42:21.240Z,17.80
2018-02-18T23:44:52.277Z,17.50
2018-02-18T23:47:23.249Z,16.12
2018-02-18T23:49:54.266Z,19.27
2018-02-18T23:52:25.199Z,16.83
2018-02-18T23:54:56.187Z,15.77
2018-02-18T23:57:27.186Z,16.08
2018-02-18T23:59:58.373Z,18.25
